createdAt,value
2022-10-01T00:02:09.138Z,13.00
2022-10-01T00:04:38.234Z,12.91
2022-10-01T00:07:11.132Z,12.89
2022-10-01T00:09:39.910Z,12.91
2022-10-01T00:12:08.360Z,12.95
2022-10-01T00:14:39.447Z,12.96
2022-10-01T00:17:07.707Z,12.94
2022-10-01T00:19:35.874Z,12.95
2022-10-01T00:22:07.019Z,12.97
2022-10-01T00:24:36.932Z,13.01
2022-10-01T00:27:05.003Z,13.06
2022-10-01T00:29:33.487Z,13.03
2022-10-01T00:32:02.342Z,13.03
2022-10-01T00:34:30.550Z,13.03
2022-10-01T00:36:58.723Z,13.02
2022-10-01T00:39:26.795Z,13.08
2022-10-01T00:41:54.865Z,13.09
2022-10-01T00:44:32.562Z,13.08
2022-10-01T00:47:19.782Z,13.09
2022-10-01T00:49:50.925Z,13.10
2022-10-01T00:52:25.039Z,13.12
2022-10-01T00:54:57.923Z,13.16
2022-10-01T00:57:27.837Z,13.15
2022-10-01T01:00:00.251Z,13.15
2022-10-01T01:02:28.548Z,13.14
2022-10-01T01:04:56.864Z,13.14
2022-10-01T01:07:25.141Z,13.18
2022-10-01T01:09:54.645Z,13.13
2022-10-01T01:13:09.514Z,13.07
2022-10-01T01:15:58.023Z,13.01
2022-10-01T01:18:30.440Z,13.02
2022-10-01T01:20:58.407Z,13.07
2022-10-01T01:23:44.807Z,13.09
2022-10-01T01:26:31.823Z,13.07
2022-10-01T01:29:09.520Z,13.09
2022-10-01T01:31:46.500Z,13.09
2022-10-01T01:34:21.227Z,13.12
2022-10-01T01:36:56.170Z,13.15
2022-10-01T01:39:28.637Z,13.12
2022-10-01T01:42:03.747Z,13.11
2022-10-01T01:44:38.601Z,13.10
2022-10-01T01:47:10.666Z,13.12
2022-10-01T01:49:39.851Z,13.16
2022-10-01T01:52:16.171Z,13.14
2022-10-01T01:54:47.886Z,13.12
2022-10-01T01:57:20.870Z,13.10
2022-10-01T01:59:49.149Z,13.09
2022-10-01T02:02:23.888Z,13.13
2022-10-01T02:04:56.452Z,13.12
2022-10-01T02:07:47.153Z,13.10
2022-10-01T02:10:25.378Z,13.08
2022-10-01T02:12:53.851Z,13.05
2022-10-01T02:15:32.497Z,13.09
2022-10-01T02:18:18.044Z,13.10
2022-10-01T02:20:50.929Z,13.09
2022-10-01T02:23:33.930Z,13.08
2022-10-01T02:26:15.333Z,13.07
2022-10-01T02:28:46.004Z,13.07
2022-10-01T02:31:16.321Z,13.08
2022-10-01T02:33:46.031Z,13.07
2022-10-01T02:36:16.574Z,13.06
2022-10-01T02:38:46.523Z,13.03
2022-10-01T02:41:20.657Z,13.01
2022-10-01T02:44:15.458Z,13.03
2022-10-01T02:47:08.102Z,13.03
2022-10-01T02:49:37.513Z,13.00
2022-10-01T02:52:20.937Z,12.97
2022-10-01T02:54:58.326Z,12.93
2022-10-01T02:57:27.735Z,12.96
2022-10-01T03:00:02.151Z,12.98
2022-10-01T03:02:31.916Z,12.97
2022-10-01T03:05:00.845Z,12.97
2022-10-01T03:07:32.306Z,12.94
2022-10-01T03:10:00.477Z,12.97
2022-10-01T03:12:28.653Z,12.99
2022-10-01T03:14:56.723Z,12.99
2022-10-01T03:17:25.326Z,12.98
2022-10-01T03:19:53.387Z,12.98
2022-10-01T03:22:23.278Z,12.99
2022-10-01T03:24:52.693Z,13.02
2022-10-01T03:27:21.890Z,13.01
2022-10-01T03:29:50.373Z,13.01
2022-10-01T03:32:19.159Z,13.01
2022-10-01T03:34:48.254Z,12.98
2022-10-01T03:37:16.327Z,13.02
2022-10-01T03:39:44.306Z,13.02
2022-10-01T03:42:12.367Z,12.99
2022-10-01T03:44:41.239Z,12.98
2022-10-01T03:47:10.262Z,12.98
2022-10-01T03:49:38.424Z,13.00
2022-10-01T03:52:07.008Z,13.03
2022-10-01T03:54:35.078Z,13.04
2022-10-01T03:57:03.252Z,13.03
2022-10-01T03:59:31.323Z,13.04
2022-10-01T04:01:59.494Z,13.00
2022-10-01T04:04:29.211Z,13.00
2022-10-01T04:06:57.282Z,13.00
2022-10-01T04:09:25.354Z,12.97
2022-10-01T04:11:53.909Z,12.95
2022-10-01T04:14:22.311Z,12.92
2022-10-01T04:16:52.761Z,12.89
2022-10-01T04:19:21.013Z,12.92
2022-10-01T04:21:49.599Z,12.93
2022-10-01T04:24:17.673Z,12.91
2022-10-01T04:26:45.741Z,12.90
2022-10-01T04:29:13.813Z,12.89
2022-10-01T04:31:41.928Z,12.93
2022-10-01T04:34:10.057Z,12.96
2022-10-01T04:36:38.128Z,12.94
2022-10-01T04:39:06.302Z,12.93
2022-10-01T04:41:34.626Z,12.91
2022-10-01T04:44:03.367Z,12.93
2022-10-01T04:46:31.545Z,12.98
2022-10-01T04:49:00.122Z,12.98
2022-10-01T04:51:28.175Z,12.97
2022-10-01T04:53:56.469Z,12.97
2022-10-01T04:56:24.541Z,12.97
2022-10-01T04:58:52.614Z,13.02
2022-10-01T05:01:20.755Z,13.05
2022-10-01T05:03:48.960Z,13.03
2022-10-01T05:06:17.134Z,13.03
2022-10-01T05:08:45.207Z,13.04
2022-10-01T05:11:13.242Z,13.05
2022-10-01T05:13:42.444Z,13.10
2022-10-01T05:16:12.211Z,13.10
2022-10-01T05:18:43.740Z,13.08
2022-10-01T05:21:12.116Z,13.05
2022-10-01T05:23:40.187Z,13.04
2022-10-01T05:26:08.999Z,13.06
2022-10-01T05:28:37.300Z,13.08
2022-10-01T05:31:05.807Z,13.07
2022-10-01T05:33:34.523Z,13.03
2022-10-01T05:36:05.356Z,13.03
2022-10-01T05:38:37.525Z,13.04
2022-10-01T05:41:05.901Z,13.06
2022-10-01T05:43:34.179Z,13.06
2022-10-01T05:46:03.788Z,13.03
2022-10-01T05:48:37.238Z,13.03
2022-10-01T05:51:08.381Z,13.03
2022-10-01T05:53:37.895Z,13.06
2022-10-01T05:56:07.722Z,13.07
2022-10-01T05:58:35.816Z,13.04
2022-10-01T06:01:05.121Z,13.03
2022-10-01T06:03:33.497Z,13.00
2022-10-01T06:06:01.568Z,13.01
2022-10-01T06:08:29.640Z,13.05
2022-10-01T06:11:04.775Z,13.06
2022-10-01T06:13:33.562Z,13.04
2022-10-01T06:16:01.985Z,13.04
2022-10-01T06:18:31.343Z,13.00
2022-10-01T06:21:00.131Z,13.00
2022-10-01T06:23:28.642Z,13.02
2022-10-01T06:25:56.786Z,13.03
2022-10-01T06:28:24.912Z,13.02
2022-10-01T06:30:53.135Z,13.03
2022-10-01T06:33:21.306Z,13.02
2022-10-01T06:35:51.121Z,12.97
2022-10-01T06:38:21.960Z,13.02
2022-10-01T06:40:58.533Z,13.05
2022-10-01T06:43:29.464Z,13.06
2022-10-01T06:46:02.949Z,13.08
2022-10-01T06:48:32.599Z,13.08
2022-10-01T06:51:00.757Z,13.14
2022-10-01T06:53:29.124Z,13.21
2022-10-01T06:55:57.399Z,13.25
2022-10-01T06:58:28.668Z,13.24
2022-10-01T07:01:02.240Z,13.22
2022-10-01T07:03:31.415Z,13.23
2022-10-01T07:06:05.475Z,13.28
2022-10-01T07:08:33.631Z,13.31
2022-10-01T07:11:03.236Z,13.34
2022-10-01T07:13:31.613Z,13.37
2022-10-01T07:15:59.749Z,13.40
2022-10-01T07:18:27.961Z,13.44
2022-10-01T07:20:59.412Z,13.50
2022-10-01T07:23:27.587Z,13.49
2022-10-01T07:25:55.759Z,13.52
2022-10-01T07:28:25.902Z,13.55
2022-10-01T07:31:03.063Z,13.57
2022-10-01T07:33:31.237Z,13.63
2022-10-01T07:36:05.519Z,13.67
2022-10-01T07:38:34.041Z,13.65
2022-10-01T07:41:03.493Z,13.65
2022-10-01T07:43:33.462Z,13.68
2022-10-01T07:46:03.110Z,13.72
2022-10-01T07:48:31.342Z,13.77
2022-10-01T07:50:59.409Z,13.79
2022-10-01T07:53:28.508Z,13.81
2022-10-01T07:56:00.582Z,13.82
2022-10-01T07:58:28.539Z,13.84
2022-10-01T08:00:58.996Z,13.87
2022-10-01T08:03:27.550Z,13.92
2022-10-01T08:05:56.235Z,13.94
2022-10-01T08:08:25.331Z,13.93
2022-10-01T08:10:53.504Z,13.96
2022-10-01T08:13:25.160Z,13.94
2022-10-01T08:15:55.034Z,13.98
2022-10-01T08:18:24.580Z,14.04
2022-10-01T08:20:52.796Z,14.06
2022-10-01T08:23:21.849Z,14.07
2022-10-01T08:25:49.924Z,14.08
2022-10-01T08:28:18.481Z,14.10
2022-10-01T08:30:46.779Z,14.12
2022-10-01T08:33:15.055Z,14.18
2022-10-01T08:35:43.926Z,14.19
2022-10-01T08:38:13.379Z,14.17
2022-10-01T08:40:52.275Z,14.16
2022-10-01T08:43:38.682Z,14.16
2022-10-01T08:46:16.673Z,14.18
2022-10-01T08:49:06.767Z,14.22
2022-10-01T08:51:58.288Z,14.20
2022-10-01T08:54:40.061Z,14.18
2022-10-01T08:57:18.369Z,14.19
2022-10-01T08:59:51.657Z,14.17
2022-10-01T09:02:42.285Z,14.19
2022-10-01T09:05:39.543Z,14.23
2022-10-01T09:08:07.510Z,14.20
2022-10-01T09:10:48.075Z,14.20
2022-10-01T09:13:16.145Z,14.20
2022-10-01T09:16:08.582Z,14.22
2022-10-01T09:18:43.318Z,14.29
2022-10-01T09:21:21.116Z,14.31
2022-10-01T09:24:03.516Z,14.32
2022-10-01T09:26:32.335Z,14.32
2022-10-01T09:29:03.048Z,14.32
2022-10-01T09:31:40.576Z,14.32
2022-10-01T09:34:15.673Z,14.37
2022-10-01T09:37:06.682Z,14.37
2022-10-01T09:39:40.385Z,14.37
2022-10-01T09:42:09.582Z,14.35
2022-10-01T09:44:37.969Z,14.35
2022-10-01T09:47:17.813Z,14.37
2022-10-01T09:49:46.479Z,14.40
2022-10-01T09:52:34.129Z,14.40
2022-10-01T09:55:20.326Z,14.40
2022-10-01T09:58:03.547Z,14.40
2022-10-01T10:00:32.745Z,14.41
2022-10-01T10:03:01.317Z,14.45
2022-10-01T10:05:40.152Z,14.49
2022-10-01T10:08:20.535Z,14.49
2022-10-01T10:11:00.596Z,14.49
2022-10-01T10:13:39.382Z,14.51
2022-10-01T10:16:27.900Z,14.52
2022-10-01T10:19:04.336Z,14.57
2022-10-01T10:21:35.463Z,14.59
2022-10-01T10:24:25.331Z,14.59
2022-10-01T10:26:59.835Z,14.60
2022-10-01T10:29:31.734Z,14.58
2022-10-01T10:32:04.393Z,14.61
2022-10-01T10:34:42.707Z,14.67
2022-10-01T10:37:20.096Z,14.67
2022-10-01T10:39:54.207Z,14.67
2022-10-01T10:42:23.291Z,14.66
2022-10-01T10:44:55.144Z,14.64
2022-10-01T10:47:24.564Z,14.64
2022-10-01T10:50:04.522Z,14.67
2022-10-01T10:52:36.798Z,14.66
2022-10-01T10:55:25.278Z,14.66
2022-10-01T10:57:57.767Z,14.67
2022-10-01T11:00:27.170Z,14.68
2022-10-01T11:03:01.737Z,14.71
2022-10-01T11:05:41.558Z,14.75
2022-10-01T11:08:18.871Z,14.72
2022-10-01T11:10:47.054Z,14.72
2022-10-01T11:13:33.730Z,14.73
2022-10-01T11:16:45.142Z,14.72
2022-10-01T11:20:10.967Z,14.76
2022-10-01T11:22:42.623Z,14.74
2022-10-01T11:25:23.495Z,14.71
2022-10-01T11:27:57.772Z,14.69
2022-10-01T11:30:37.761Z,14.70
2022-10-01T11:33:15.149Z,14.71
2022-10-01T11:36:31.570Z,14.72
2022-10-01T11:39:05.054Z,14.70
2022-10-01T11:41:45.340Z,14.69
2022-10-01T11:44:13.996Z,14.70
2022-10-01T11:46:55.742Z,14.72
2022-10-01T11:50:04.922Z,14.70
2022-10-01T11:52:43.235Z,14.65
2022-10-01T11:55:45.407Z,14.63
2022-10-01T11:58:51.773Z,14.63
2022-10-01T12:01:36.314Z,14.64
2022-10-01T12:04:36.151Z,14.61
2022-10-01T12:07:20.488Z,14.61
2022-10-01T12:10:26.154Z,14.60
2022-10-01T12:13:13.374Z,14.61
2022-10-01T12:15:48.033Z,14.63
2022-10-01T12:18:28.461Z,14.59
2022-10-01T12:21:00.629Z,14.58
2022-10-01T12:23:35.156Z,14.56
2022-10-01T12:26:42.539Z,14.56
2022-10-01T12:29:24.030Z,14.57
2022-10-01T12:32:11.149Z,14.56
2022-10-01T12:35:17.937Z,14.53
2022-10-01T12:38:04.635Z,14.54
2022-10-01T12:40:44.892Z,14.56
2022-10-01T12:43:39.383Z,14.58
2022-10-01T12:46:16.497Z,14.57
2022-10-01T12:48:46.077Z,14.57
2022-10-01T12:51:39.334Z,14.56
2022-10-01T12:54:18.062Z,14.54
2022-10-01T12:56:52.681Z,14.55
2022-10-01T13:00:08.815Z,14.55
2022-10-01T13:03:05.009Z,14.57
2022-10-01T13:05:57.145Z,14.58
2022-10-01T13:08:33.816Z,14.62
2022-10-01T13:11:36.704Z,14.62
2022-10-01T13:14:07.543Z,14.58
2022-10-01T13:16:55.702Z,14.57
2022-10-01T13:20:16.081Z,14.60
2022-10-01T13:22:58.796Z,14.66
2022-10-01T13:25:38.954Z,14.63
2022-10-01T13:28:22.778Z,14.62
2022-10-01T13:31:00.659Z,14.64
2022-10-01T13:33:36.342Z,14.68
2022-10-01T13:36:06.617Z,14.70
2022-10-01T13:38:43.657Z,14.71
2022-10-01T13:41:30.358Z,14.71
2022-10-01T13:44:11.846Z,14.72
2022-10-01T13:47:13.499Z,14.74
2022-10-01T13:49:43.209Z,14.77
2022-10-01T13:52:20.704Z,14.75
2022-10-01T13:54:55.329Z,14.73
2022-10-01T13:57:34.256Z,14.71
2022-10-01T14:00:17.502Z,14.70
2022-10-01T14:03:05.267Z,14.73
2022-10-01T14:05:42.910Z,14.73
2022-10-01T14:08:44.259Z,14.71
2022-10-01T14:11:36.091Z,14.69
2022-10-01T14:14:40.921Z,14.73
2022-10-01T14:17:10.938Z,14.78
2022-10-01T14:19:47.409Z,14.80
2022-10-01T14:22:46.301Z,14.79
2022-10-01T14:25:42.225Z,14.80
2022-10-01T14:28:34.872Z,14.83
2022-10-01T14:31:08.847Z,14.80
2022-10-01T14:34:19.450Z,14.77
2022-10-01T14:36:52.846Z,14.75
2022-10-01T14:39:30.855Z,14.79
2022-10-01T14:41:59.333Z,14.80
2022-10-01T14:44:37.234Z,14.78
2022-10-01T14:47:19.441Z,14.78
2022-10-01T14:49:49.350Z,14.78
2022-10-01T14:52:20.187Z,14.80
2022-10-01T14:55:13.216Z,14.79
2022-10-01T14:57:49.713Z,14.75
2022-10-01T15:00:20.958Z,14.74
2022-10-01T15:03:03.573Z,14.76
2022-10-01T15:05:34.817Z,14.78
2022-10-01T15:08:10.364Z,14.78
2022-10-01T15:10:42.310Z,14.77
2022-10-01T15:13:20.129Z,14.75
2022-10-01T15:15:48.401Z,14.77
2022-10-01T15:18:18.315Z,14.80
2022-10-01T15:20:52.124Z,14.80
2022-10-01T15:23:22.346Z,14.79
2022-10-01T15:25:51.172Z,14.77
2022-10-01T15:28:34.051Z,14.73
2022-10-01T15:31:07.203Z,14.68
2022-10-01T15:33:40.673Z,14.67
2022-10-01T15:36:19.084Z,14.58
2022-10-01T15:38:49.154Z,14.49
2022-10-01T15:41:31.524Z,14.48
2022-10-01T15:44:05.692Z,14.52
2022-10-01T15:46:35.779Z,14.53
2022-10-01T15:49:20.160Z,14.53
2022-10-01T15:52:11.691Z,14.54
2022-10-01T15:54:42.729Z,14.57
2022-10-01T15:57:18.979Z,14.60
2022-10-01T15:59:49.724Z,14.60
2022-10-01T16:02:22.543Z,14.60
2022-10-01T16:04:56.823Z,14.59
2022-10-01T16:07:30.629Z,14.61
2022-10-01T16:10:12.422Z,14.65
2022-10-01T16:12:40.802Z,14.63
2022-10-01T16:15:30.172Z,14.61
2022-10-01T16:18:02.629Z,14.59
2022-10-01T16:20:37.475Z,14.60
2022-10-01T16:23:42.825Z,14.63
2022-10-01T16:26:29.223Z,14.63
2022-10-01T16:29:00.373Z,14.63
2022-10-01T16:31:30.808Z,14.59
2022-10-01T16:33:59.068Z,14.61
2022-10-01T16:36:28.368Z,14.63
2022-10-01T16:38:58.324Z,14.64
2022-10-01T16:41:29.475Z,14.62
2022-10-01T16:43:59.444Z,14.61
2022-10-01T16:46:27.924Z,14.59
2022-10-01T16:48:55.996Z,14.61
2022-10-01T16:51:24.068Z,14.60
2022-10-01T16:53:54.708Z,14.58
2022-10-01T16:56:27.109Z,14.57
2022-10-01T16:58:55.555Z,14.56
2022-10-01T17:01:23.652Z,14.60
2022-10-01T17:03:51.797Z,14.62
2022-10-01T17:06:19.868Z,14.61
2022-10-01T17:08:47.940Z,14.59
2022-10-01T17:11:16.114Z,14.59
2022-10-01T17:13:44.184Z,14.62
2022-10-01T17:16:12.320Z,14.64
2022-10-01T17:18:40.431Z,14.62
2022-10-01T17:21:09.760Z,14.58
2022-10-01T17:23:37.904Z,14.56
2022-10-01T17:26:09.543Z,14.56
2022-10-01T17:28:37.633Z,14.58
2022-10-01T17:31:08.729Z,14.57
2022-10-01T17:33:38.586Z,14.55
2022-10-01T17:36:07.886Z,14.53
2022-10-01T17:38:36.059Z,14.55
2022-10-01T17:41:04.336Z,14.57
2022-10-01T17:43:32.714Z,14.57
2022-10-01T17:46:01.655Z,14.53
2022-10-01T17:48:30.289Z,14.48
2022-10-01T17:51:00.512Z,14.47
2022-10-01T17:53:34.192Z,14.47
2022-10-01T17:56:09.444Z,14.48
2022-10-01T17:58:40.556Z,14.41
2022-10-01T18:01:13.697Z,14.38
2022-10-01T18:03:41.860Z,14.35
2022-10-01T18:06:14.540Z,14.39
2022-10-01T18:08:58.421Z,14.39
2022-10-01T18:11:28.400Z,14.30
2022-10-01T18:13:57.496Z,14.26
2022-10-01T18:16:26.449Z,14.29
2022-10-01T18:21:49.525Z,14.29
2022-10-01T18:24:18.557Z,14.28
2022-10-01T18:26:47.946Z,14.26
2022-10-01T18:29:20.519Z,14.28
2022-10-01T18:32:01.724Z,14.33
2022-10-01T18:34:30.501Z,14.33
2022-10-01T18:37:07.685Z,14.30
2022-10-01T18:39:35.961Z,14.26
2022-10-01T18:42:21.441Z,14.27
2022-10-01T18:44:58.421Z,14.30
2022-10-01T18:47:39.600Z,14.28
2022-10-01T18:50:14.533Z,14.29
2022-10-01T18:52:54.893Z,14.27
2022-10-01T18:56:18.467Z,14.27
2022-10-01T18:58:46.549Z,14.29
2022-10-01T19:01:35.947Z,14.28
2022-10-01T19:04:35.312Z,14.26
2022-10-01T19:07:22.635Z,14.27
2022-10-01T19:09:56.824Z,14.32
2022-10-01T19:12:36.290Z,14.33
2022-10-01T19:15:13.886Z,14.31
2022-10-01T19:18:05.307Z,14.28
2022-10-01T19:20:45.941Z,14.26
2022-10-01T19:23:49.443Z,14.30
2022-10-01T19:26:24.799Z,14.27
2022-10-01T19:29:04.761Z,14.24
2022-10-01T19:32:02.558Z,14.23
2022-10-01T19:34:38.178Z,14.25
2022-10-01T19:37:30.931Z,14.26
2022-10-01T19:40:07.191Z,14.25
2022-10-01T19:42:40.284Z,14.23
2022-10-01T19:45:25.059Z,14.19
2022-10-01T19:48:06.632Z,14.17
2022-10-01T19:50:40.134Z,14.20
2022-10-01T19:53:21.820Z,14.18
2022-10-01T19:55:52.651Z,14.13
2022-10-01T19:58:21.644Z,14.10
2022-10-01T20:00:57.846Z,14.10
2022-10-01T20:03:38.737Z,14.10
2022-10-01T20:06:17.532Z,14.04
2022-10-01T20:08:56.021Z,14.00
2022-10-01T20:11:31.568Z,13.93
2022-10-01T20:14:56.266Z,13.93
2022-10-01T20:17:58.121Z,13.92
2022-10-01T20:20:26.303Z,13.84
2022-10-01T20:23:08.610Z,13.76
2022-10-01T20:25:55.114Z,13.73
2022-10-01T20:28:41.512Z,13.76
2022-10-01T20:31:36.963Z,13.77
2022-10-01T20:34:42.580Z,13.73
2022-10-01T20:37:35.223Z,13.69
2022-10-01T20:40:25.309Z,13.67
2022-10-01T20:43:02.396Z,13.65
2022-10-01T20:45:34.468Z,13.52
2022-10-01T20:48:41.564Z,13.37
2022-10-01T20:51:30.711Z,13.25
2022-10-01T20:54:07.135Z,13.20
2022-10-01T20:56:42.402Z,13.08
2022-10-01T20:59:25.544Z,12.95
2022-10-01T21:02:02.711Z,12.88
2022-10-01T21:04:54.046Z,12.85
2022-10-01T21:07:37.476Z,12.80
2022-10-01T21:10:33.812Z,12.72
2022-10-01T21:13:14.683Z,12.65
2022-10-01T21:16:05.951Z,12.64
2022-10-01T21:18:57.425Z,12.56
2022-10-01T21:22:07.781Z,12.46
2022-10-01T21:25:12.921Z,12.38
2022-10-01T21:28:13.129Z,12.33
2022-10-01T21:31:25.336Z,12.32
2022-10-01T21:34:03.841Z,12.24
2022-10-01T21:36:39.467Z,12.20
2022-10-01T21:39:29.401Z,12.13
2022-10-01T21:42:15.595Z,12.10
2022-10-01T21:45:05.274Z,12.09
2022-10-01T21:48:03.576Z,12.05
2022-10-01T21:50:49.857Z,12.06
2022-10-01T21:54:09.209Z,12.05
2022-10-01T21:56:46.411Z,12.03
2022-10-01T21:59:36.090Z,12.04
2022-10-01T22:02:34.009Z,12.04
2022-10-01T22:05:40.302Z,12.05
2022-10-01T22:08:23.555Z,12.01
2022-10-01T22:10:59.307Z,11.96
2022-10-01T22:13:35.365Z,12.00
2022-10-01T22:16:11.164Z,11.95
2022-10-01T22:18:51.884Z,11.91
2022-10-01T22:21:35.625Z,11.87
2022-10-01T22:24:10.146Z,11.89
2022-10-01T22:26:45.184Z,11.93
2022-10-01T22:29:24.030Z,11.96
2022-10-01T22:31:58.482Z,11.93
2022-10-01T22:34:34.381Z,11.91
2022-10-01T22:37:08.391Z,11.84
2022-10-01T22:39:45.786Z,11.80
2022-10-01T22:42:21.122Z,11.76
2022-10-01T22:44:49.194Z,11.69
2022-10-01T22:47:35.800Z,11.60
2022-10-01T22:50:20.363Z,11.51
2022-10-01T22:53:00.205Z,11.50
2022-10-01T22:55:52.841Z,11.54
2022-10-01T22:58:54.260Z,11.47
2022-10-01T23:01:47.785Z,11.46
2022-10-01T23:04:49.534Z,11.40
2022-10-01T23:08:03.380Z,11.37
2022-10-01T23:11:03.604Z,11.35
2022-10-01T23:13:50.773Z,11.31
2022-10-01T23:16:44.159Z,11.27
2022-10-01T23:19:32.228Z,11.25
2022-10-01T23:22:25.741Z,11.30
2022-10-01T23:25:18.053Z,11.29
2022-10-01T23:27:53.730Z,11.29
2022-10-01T23:30:22.344Z,11.30
2022-10-01T23:33:20.138Z,11.27
2022-10-01T23:36:05.311Z,11.27
2022-10-01T23:38:36.760Z,11.21
2022-10-01T23:41:28.575Z,11.16
2022-10-01T23:44:14.375Z,11.15
2022-10-01T23:46:47.337Z,11.21
2022-10-01T23:49:19.942Z,11.28
2022-10-01T23:52:27.741Z,11.31
2022-10-01T23:55:22.130Z,11.28
2022-10-01T23:58:00.934Z,11.26
